sensor_id;sensor_type;location;lat;lon;timestamp;P1;durP1;ratioP1;P2;durP2;ratioP2
35022;SDS011;21214;44.912;8.204;2023-06-14T13:04:24;7.30;;;4.70;;
35022;SDS011;21214;44.912;8.204;2023-06-14T13:06:49;7.15;;;6.45;;
35022;SDS011;21214;44.912;8.204;2023-06-14T13:09:15;5.63;;;5.18;;
35022;SDS011;21214;44.912;8.204;2023-06-14T13:11:40;6.35;;;5.82;;
35022;SDS011;21214;44.912;8.204;2023-06-14T13:14:06;6.70;;;6.00;;
35022;SDS011;21214;44.912;8.204;2023-06-14T13:16:31;6.38;;;5.88;;
35022;SDS011;21214;44.912;8.204;2023-06-14T13:18:56;6.25;;;5.75;;
35022;SDS011;21214;44.912;8.204;2023-06-14T13:21:22;5.80;;;5.40;;
35022;SDS011;21214;44.912;8.204;2023-06-14T13:23:48;7.45;;;6.78;;
35022;SDS011;21214;44.912;8.204;2023-06-14T13:26:13;7.63;;;6.93;;
35022;SDS011;21214;44.912;8.204;2023-06-14T13:28:40;6.90;;;5.85;;
35022;SDS011;21214;44.912;8.204;2023-06-14T13:31:05;6.55;;;5.95;;
35022;SDS011;21214;44.912;8.204;2023-06-14T13:33:31;6.10;;;5.57;;
35022;SDS011;21214;44.912;8.204;2023-06-14T13:35:56;7.05;;;6.28;;
35022;SDS011;21214;44.912;8.204;2023-06-14T13:38:22;7.43;;;6.72;;
35022;SDS011;21214;44.912;8.204;2023-06-14T13:40:47;7.30;;;6.70;;
35022;SDS011;21214;44.912;8.204;2023-06-14T13:43:13;7.30;;;6.60;;
35022;SDS011;21214;44.912;8.204;2023-06-14T13:45:38;7.97;;;6.90;;
35022;SDS011;21214;44.912;8.204;2023-06-14T13:48:04;7.25;;;6.53;;
35022;SDS011;21214;44.912;8.204;2023-06-14T13:50:30;6.78;;;6.18;;
35022;SDS011;21214;44.912;8.204;2023-06-14T13:52:55;6.75;;;5.72;;
35022;SDS011;21214;44.912;8.204;2023-06-14T13:55:20;6.25;;;5.72;;
35022;SDS011;21214;44.912;8.204;2023-06-14T13:57:46;5.93;;;5.40;;
35022;SDS011;21214;44.912;8.204;2023-06-14T14:00:12;6.05;;;5.55;;
35022;SDS011;21214;44.912;8.204;2023-06-14T14:02:38;6.25;;;5.72;;
35022;SDS011;21214;44.912;8.204;2023-06-14T14:05:05;5.57;;;5.18;;
35022;SDS011;21214;44.912;8.204;2023-06-14T14:07:30;5.80;;;5.38;;
35022;SDS011;21214;44.912;8.204;2023-06-14T14:09:56;5.57;;;5.18;;
35022;SDS011;21214;44.912;8.204;2023-06-14T14:12:23;5.50;;;5.10;;
35022;SDS011;21214;44.912;8.204;2023-06-14T14:14:49;5.93;;;5.40;;
35022;SDS011;21214;44.912;8.204;2023-06-14T14:17:16;5.40;;;5.00;;
35022;SDS011;21214;44.912;8.204;2023-06-14T14:19:41;5.38;;;4.97;;
35022;SDS011;21214;44.912;8.204;2023-06-14T14:22:07;6.05;;;5.32;;
35022;SDS011;21214;44.912;8.204;2023-06-14T14:24:32;5.40;;;5.00;;
35022;SDS011;21214;44.912;8.204;2023-06-14T14:26:57;4.70;;;4.30;;
35022;SDS011;21214;44.912;8.204;2023-06-14T14:29:25;4.78;;;4.43;;
35022;SDS011;21214;44.912;8.204;2023-06-14T14:46:28;4.00;;;3.60;;
35022;SDS011;21214;44.912;8.204;2023-06-14T14:48:53;4.20;;;3.90;;
35022;SDS011;21214;44.912;8.204;2023-06-14T14:51:19;4.05;;;3.75;;
35022;SDS011;21214;44.912;8.204;2023-06-14T15:15:36;4.78;;;3.63;;
35022;SDS011;21214;44.912;8.204;2023-06-14T15:18:02;4.18;;;3.83;;
35022;SDS011;21214;44.912;8.204;2023-06-14T15:20:28;4.10;;;3.72;;
35022;SDS011;21214;44.912;8.204;2023-06-14T15:22:54;4.10;;;3.80;;
35022;SDS011;21214;44.912;8.204;2023-06-14T15:25:29;6.03;;;3.88;;
35022;SDS011;21214;44.912;8.204;2023-06-14T15:27:55;3.90;;;3.60;;
35022;SDS011;21214;44.912;8.204;2023-06-14T15:30:21;3.72;;;3.42;;
35022;SDS011;21214;44.912;8.204;2023-06-14T15:32:47;4.45;;;4.05;;
35022;SDS011;21214;44.912;8.204;2023-06-14T15:35:13;6.78;;;3.78;;
35022;SDS011;21214;44.912;8.204;2023-06-14T19:25:50;7.78;;;7.03;;
35022;SDS011;21214;44.912;8.204;2023-06-14T19:28:15;11.90;;;7.80;;
35022;SDS011;21214;44.912;8.204;2023-06-14T19:30:41;11.27;;;7.35;;
35022;SDS011;21214;44.912;8.204;2023-06-14T19:33:07;9.32;;;7.82;;
35022;SDS011;21214;44.912;8.204;2023-06-14T19:35:33;7.70;;;6.90;;
35022;SDS011;21214;44.912;8.204;2023-06-14T19:37:58;12.77;;;8.85;;
35022;SDS011;21214;44.912;8.204;2023-06-14T19:40:24;10.52;;;8.15;;
35022;SDS011;21214;44.912;8.204;2023-06-14T19:42:50;9.80;;;7.63;;
35022;SDS011;21214;44.912;8.204;2023-06-14T19:45:15;11.32;;;7.35;;
35022;SDS011;21214;44.912;8.204;2023-06-14T19:47:41;8.48;;;6.93;;
35022;SDS011;21214;44.912;8.204;2023-06-14T19:50:09;7.28;;;6.43;;
35022;SDS011;21214;44.912;8.204;2023-06-14T19:52:35;10.05;;;7.15;;
35022;SDS011;21214;44.912;8.204;2023-06-14T19:55:01;6.35;;;5.75;;
35022;SDS011;21214;44.912;8.204;2023-06-14T19:57:27;7.75;;;6.68;;
35022;SDS011;21214;44.912;8.204;2023-06-14T19:59:53;7.68;;;6.15;;
35022;SDS011;21214;44.912;8.204;2023-06-14T20:02:19;6.53;;;5.93;;
35022;SDS011;21214;44.912;8.204;2023-06-14T20:04:45;10.55;;;6.22;;
35022;SDS011;21214;44.912;8.204;2023-06-14T20:07:11;8.65;;;6.63;;
35022;SDS011;21214;44.912;8.204;2023-06-14T20:09:37;8.05;;;6.03;;
35022;SDS011;21214;44.912;8.204;2023-06-14T20:12:02;6.63;;;5.95;;
35022;SDS011;21214;44.912;8.204;2023-06-14T20:14:28;9.40;;;5.90;;
35022;SDS011;21214;44.912;8.204;2023-06-14T20:16:53;7.82;;;5.82;;
35022;SDS011;21214;44.912;8.204;2023-06-14T20:19:19;6.65;;;5.47;;
35022;SDS011;21214;44.912;8.204;2023-06-14T20:21:45;5.38;;;4.88;;
35022;SDS011;21214;44.912;8.204;2023-06-14T20:24:12;5.85;;;5.22;;
35022;SDS011;21214;44.912;8.204;2023-06-14T20:26:37;6.15;;;5.00;;
35022;SDS011;21214;44.912;8.204;2023-06-14T20:29:02;5.57;;;5.07;;
35022;SDS011;21214;44.912;8.204;2023-06-14T20:31:29;5.65;;;5.15;;
35022;SDS011;21214;44.912;8.204;2023-06-14T20:33:55;6.22;;;5.57;;
35022;SDS011;21214;44.912;8.204;2023-06-14T20:36:20;8.38;;;5.50;;
35022;SDS011;21214;44.912;8.204;2023-06-14T20:38:46;6.03;;;5.43;;
35022;SDS011;21214;44.912;8.204;2023-06-14T20:41:12;7.50;;;6.70;;
35022;SDS011;21214;44.912;8.204;2023-06-14T20:43:39;6.78;;;6.07;;
35022;SDS011;21214;44.912;8.204;2023-06-14T20:46:05;6.07;;;5.28;;
35022;SDS011;21214;44.912;8.204;2023-06-14T20:48:32;5.80;;;5.00;;
35022;SDS011;21214;44.912;8.204;2023-06-14T20:50:58;6.78;;;6.18;;
35022;SDS011;21214;44.912;8.204;2023-06-14T20:53:23;6.05;;;4.85;;
35022;SDS011;21214;44.912;8.204;2023-06-14T20:55:49;5.95;;;5.40;;
35022;SDS011;21214;44.912;8.204;2023-06-14T20:58:14;5.35;;;4.85;;
35022;SDS011;21214;44.912;8.204;2023-06-14T21:00:45;5.88;;;5.30;;
35022;SDS011;21214;44.912;8.204;2023-06-14T21:03:11;6.53;;;5.20;;
35022;SDS011;21214;44.912;8.204;2023-06-14T21:05:36;6.25;;;5.53;;
35022;SDS011;21214;44.912;8.204;2023-06-14T21:08:01;7.22;;;5.47;;
35022;SDS011;21214;44.912;8.204;2023-06-14T21:10:27;7.63;;;5.60;;
35022;SDS011;21214;44.912;8.204;2023-06-14T21:12:53;6.47;;;5.30;;
35022;SDS011;21214;44.912;8.204;2023-06-14T21:15:21;6.68;;;5.68;;
35022;SDS011;21214;44.912;8.204;2023-06-14T21:17:51;6.10;;;5.60;;
35022;SDS011;21214;44.912;8.204;2023-06-14T21:20:17;6.13;;;5.53;;
35022;SDS011;21214;44.912;8.204;2023-06-14T21:22:42;6.53;;;5.93;;
35022;SDS011;21214;44.912;8.204;2023-06-14T21:25:08;7.53;;;6.30;;
35022;SDS011;21214;44.912;8.204;2023-06-14T21:27:33;7.95;;;6.43;;
